Atwood, Kansas
Current Conditions -  °F | °C
As of 6:55 PM on Tuesday 21 Oct 2014 (Local Time) from KCBK Reporting Station
Clear Clear  
Wind Chill: 72°   Ceiling: Unl
Heat Index: 72°   Visibility: 10mi
Dew Point: 54°   Wind: 14mph
Humidity: 53%   Direction: 160°SSE
Pressure: 29.94"   Gusts: 23mph
Location:  39.81°N, 101.04°W
Report Text: KCBK 212355Z AUTO 16012G20KT 10SM CLR 22/12 A2994 RMK AO2
Loading
Personal Weather Stations






























Interactive Weather Map
Tropical Storm Tracking
New forecast layout! Learn more

10-Day Weather Forecast

Advertisements
Track Severe Weather on mobile